La Quiaca, Argentina
Current Conditions -  °F | °C
As of 11:00 PM on Wednesday 17 Dec 2014 (Local Time) from SLTJ Reporting Station
Drizzle Drizzle  
Wind Chill: 61°   Ceiling: 1800
Heat Index: 61°   Visibility: 3mi
Dew Point: 57°   Wind: 5mph
Humidity: 88%   Direction: 170°S
Pressure: 30.15"   Gusts: NA
Location:  22.11°S, 65.59°W
Report Text: SLTJ 180200Z 17004KT 5000 -DZ SCT010 OVC018 16/14 Q1021
Loading
Personal Weather Stations






























Interactive Weather Map New forecast layout! Learn more

10-Day Weather Forecast

Advertisements
Track Severe Weather on mobile